Test XHTML 1.0 Strict Page for WU-History Testing
Station Historical Data
 
Daily Summary for April 19, 2014 Units:  English    Metric   Both
« Previous Day
Next Day »
Daily Weekly Monthly Yearly Custom
  Current: High: Low: Average:
Temperature: 72.0 °F 72.0 °F 54.3 °F 58.1 °F
Dew Point: 50.7 °F 50.8 °F 43.2 °F 47.5 °F
Humidity: 47% 76% 46% 69%
Wind Speed: 18.4mph 31.1mph 3.5mph 12.5mph
Wind Gust: 18.4mph 31.1mph - -
WindSouth - - South
Pressure: 29.95 in 30.04 in 29.95 in -
Precipitation: 0.00 in      
Historical Graphs
 
 
Tabular Data for April 19, 2014
Time Temperature Dew Point Pressure Wind Wind Speed Wind Gust Humidity Rainfall Rate (Hourly) Conditions
00:03 55.9 °F 43.5 °F 30.03 in SW 4.0 mph 4.0 mph 63% 0.00 in CLR
00:08 55.6 °F 43.2 °F 30.03 in ESE 3.5 mph 3.5 mph 63% 0.00 in CLR
00:13 55.4 °F 43.4 °F 30.04 in ESE 4.6 mph 4.6 mph 64% 0.00 in CLR
00:18 55.3 °F 43.3 °F 30.04 in SE 6.0 mph 6.0 mph 64% 0.00 in CLR
00:23 55.1 °F 43.5 °F 30.04 in SSE 9.0 mph 9.0 mph 65% 0.00 in CLR
00:28 55.0 °F 43.8 °F 30.03 in SE 6.9 mph 6.9 mph 66% 0.00 in CLR
00:33 54.9 °F 44.1 °F 30.03 in ESE 6.9 mph 6.9 mph 67% 0.00 in CLR
00:36 54.9 °F 44.1 °F 30.04 in South 6.0 mph 6.0 mph 67% 0.00 in CLR
00:41 54.9 °F 44.1 °F 30.03 in ESE 4.6 mph 4.6 mph 67% 0.00 in CLR
00:46 54.7 °F 44.3 °F 30.03 in East 5.8 mph 5.8 mph 68% 0.00 in CLR
00:51 54.6 °F 44.2 °F 30.03 in SW 4.6 mph 4.6 mph 68% 0.00 in CLR
00:56 54.5 °F 44.5 °F 30.03 in East 6.9 mph 6.9 mph 69% 0.00 in CLR
01:01 54.3 °F 44.7 °F 30.03 in SSE 4.6 mph 4.6 mph 70% 0.00 in CLR
01:06 54.5 °F 45.3 °F 30.03 in SSW 10.4 mph 10.4 mph 71% 0.00 in CLR
01:11 54.7 °F 45.5 °F 30.03 in SSW 10.4 mph 10.4 mph 71% 0.00 in CLR
01:16 54.9 °F 45.7 °F 30.03 in WSW 11.5 mph 11.5 mph 71% 0.00 in CLR
01:21 54.9 °F 45.7 °F 30.03 in West 8.1 mph 8.1 mph 71% 0.00 in CLR
01:26 55.1 °F 45.9 °F 30.03 in SSE 11.5 mph 11.5 mph 71% 0.00 in CLR
01:31 55.0 °F 45.8 °F 30.03 in ESE 8.1 mph 8.1 mph 71% 0.00 in CLR
01:35 55.0 °F 45.8 °F 30.03 in WSW 9.2 mph 9.2 mph 71% 0.00 in CLR
01:40 54.9 °F 46.0 °F 30.02 in SW 8.1 mph 8.1 mph 72% 0.00 in CLR
01:45 54.9 °F 46.0 °F 30.02 in SSW 8.1 mph 8.1 mph 72% 0.00 in CLR
01:50 54.9 °F 46.0 °F 30.03 in SE 6.0 mph 6.0 mph 72% 0.00 in CLR
01:55 55.0 °F 46.1 °F 30.02 in South 9.2 mph 9.2 mph 72% 0.00 in CLR
02:00 55.1 °F 46.2 °F 30.02 in WSW 10.4 mph 10.4 mph 72% 0.00 in CLR
02:05 55.1 °F 46.2 °F 30.02 in ESE 9.2 mph 9.2 mph 72% 0.00 in CLR
02:10 55.1 °F 46.2 °F 30.02 in South 6.9 mph 6.9 mph 72% 0.00 in CLR
02:15 54.9 °F 46.4 °F 30.02 in ESE 9.2 mph 9.2 mph 73% 0.00 in CLR
02:20 54.9 °F 46.4 °F 30.01 in NNW 5.8 mph 5.8 mph 73% 0.00 in CLR
02:25 54.8 °F 46.3 °F 30.01 in ESE 4.6 mph 4.6 mph 73% 0.00 in CLR
02:30 54.8 °F 46.3 °F 30.01 in SE 4.0 mph 4.0 mph 73% 0.00 in CLR
02:35 54.6 °F 46.5 °F 30.01 in ESE 3.5 mph 3.5 mph 74% 0.00 in CLR
02:40 54.7 °F 46.6 °F 30.00 in SW 11.5 mph 11.5 mph 74% 0.00 in CLR
02:45 55.0 °F 46.9 °F 30.00 in SE 8.1 mph 8.1 mph 74% 0.00 in CLR
02:50 55.2 °F 46.7 °F 30.00 in South 10.4 mph 10.4 mph 73% 0.00 in CLR
02:55 55.5 °F 47.0 °F 29.99 in South 11.5 mph 11.5 mph 73% 0.00 in CLR
03:00 55.7 °F 47.2 °F 29.99 in SW 15.0 mph 15.0 mph 73% 0.00 in CLR
03:05 55.8 °F 46.9 °F 29.99 in SW 8.1 mph 8.1 mph 72% 0.00 in CLR
03:10 55.7 °F 46.8 °F 29.99 in West 11.5 mph 11.5 mph 72% 0.00 in CLR
03:15 55.7 °F 46.8 °F 29.99 in SW 10.4 mph 10.4 mph 72% 0.00 in CLR
03:20 55.6 °F 46.7 °F 29.99 in SSW 11.5 mph 11.5 mph 72% 0.00 in CLR
03:25 55.6 °F 46.7 °F 29.99 in West 8.1 mph 8.1 mph 72% 0.00 in CLR
03:31 55.5 °F 47.0 °F 29.99 in SE 5.8 mph 5.8 mph 73% 0.00 in CLR
03:36 55.6 °F 47.1 °F 29.98 in WSW 12.7 mph 12.7 mph 73% 0.00 in CLR
03:41 55.6 °F 47.1 °F 29.99 in SSW 10.0 mph 10.0 mph 73% 0.00 in CLR
03:46 55.7 °F 47.2 °F 29.99 in SSW 8.1 mph 8.1 mph 73% 0.00 in CLR
03:51 55.8 °F 46.9 °F 29.99 in SSE 10.0 mph 10.0 mph 72% 0.00 in CLR
03:56 55.8 °F 46.9 °F 29.99 in WSW 11.5 mph 11.5 mph 72% 0.00 in CLR
04:01 55.7 °F 47.2 °F 29.99 in ESE 10.4 mph 10.4 mph 73% 0.00 in CLR
04:06 55.7 °F 47.2 °F 29.98 in SSE 10.4 mph 10.4 mph 73% 0.00 in CLR
04:11 55.7 °F 47.2 °F 29.98 in SE 5.8 mph 5.8 mph 73% 0.00 in CLR
04:16 55.6 °F 47.1 °F 29.98 in ESE 10.4 mph 10.4 mph 73% 0.00 in CLR
04:21 55.7 °F 47.2 °F 29.98 in WSW 13.8 mph 13.8 mph 73% 0.00 in CLR
04:26 55.6 °F 47.1 °F 29.98 in SSW 10.4 mph 10.4 mph 73% 0.00 in CLR
04:31 55.5 °F 47.0 °F 29.98 in SSW 6.9 mph 6.9 mph 73% 0.00 in CLR
04:36 55.4 °F 46.9 °F 29.98 in SW 9.2 mph 9.2 mph 73% 0.00 in CLR
04:41 55.3 °F 47.2 °F 29.98 in South 6.9 mph 6.9 mph 74% 0.00 in CLR
04:46 55.3 °F 47.2 °F 29.98 in East 9.2 mph 9.2 mph 74% 0.00 in CLR
04:51 55.3 °F 47.2 °F 29.99 in WSW 11.5 mph 11.5 mph 74% 0.00 in CLR
04:56 55.2 °F 47.1 °F 29.99 in SE 9.2 mph 9.2 mph 74% 0.00 in CLR
05:01 55.2 °F 47.1 °F 29.99 in SE 11.5 mph 11.5 mph 74% 0.00 in CLR
05:06 55.2 °F 47.1 °F 29.99 in WSW 16.1 mph 16.1 mph 74% 0.00 in CLR
05:11 55.2 °F 47.1 °F 29.98 in SSE 6.9 mph 6.9 mph 74% 0.00 in CLR
05:16 55.1 °F 47.3 °F 29.98 in SSE 12.7 mph 12.7 mph 75% 0.00 in CLR
05:21 55.0 °F 47.2 °F 29.98 in SE 17.3 mph 17.3 mph 75% 0.00 in CLR
05:26 55.0 °F 47.2 °F 29.98 in SE 8.1 mph 8.1 mph 75% 0.00 in CLR
05:31 54.9 °F 47.1 °F 29.98 in ESE 6.9 mph 6.9 mph 75% 0.00 in CLR
05:36 54.8 °F 47.4 °F 29.98 in SSE 6.9 mph 6.9 mph 76% 0.00 in CLR
05:41 54.8 °F 47.4 °F 29.98 in SW 10.4 mph 10.4 mph 76% 0.00 in CLR
05:46 54.7 °F 47.3 °F 29.98 in WNW 11.5 mph 11.5 mph 76% 0.00 in CLR
05:51 54.7 °F 47.3 °F 29.99 in South 6.9 mph 6.9 mph 76% 0.00 in CLR
05:56 54.7 °F 47.3 °F 29.98 in ESE 10.0 mph 10.0 mph 76% 0.00 in CLR
06:01 54.8 °F 47.4 °F 29.98 in ESE 13.8 mph 13.8 mph 76% 0.00 in CLR
06:06 54.9 °F 47.5 °F 29.98 in SSW 15.0 mph 15.0 mph 76% 0.00 in CLR
06:11 54.9 °F 47.5 °F 29.98 in West 6.9 mph 6.9 mph 76% 0.00 in CLR
06:16 54.8 °F 47.4 °F 29.98 in SE 8.0 mph 8.0 mph 76% 0.00 in CLR
06:21 54.8 °F 47.4 °F 29.98 in SW 8.1 mph 8.1 mph 76% 0.00 in CLR
06:26 54.8 °F 47.4 °F 29.98 in East 10.4 mph 10.4 mph 76% 0.00 in CLR
06:31 54.8 °F 47.4 °F 29.98 in ESE 10.4 mph 10.4 mph 76% 0.00 in CLR
06:36 54.7 °F 47.3 °F 29.98 in South 5.8 mph 5.8 mph 76% 0.00 in CLR
06:41 54.6 °F 47.2 °F 29.98 in East 11.5 mph 11.5 mph 76% 0.00 in CLR
06:46 54.6 °F 47.2 °F 29.98 in WNW 8.1 mph 8.1 mph 76% 0.00 in CLR
06:51 54.5 °F 47.1 °F 29.98 in South 17.3 mph 17.3 mph 76% 0.00 in CLR
06:56 54.5 °F 47.1 °F 29.98 in SW 11.5 mph 11.5 mph 76% 0.00 in CLR
07:01 54.4 °F 47.0 °F 29.98 in SE 5.8 mph 5.8 mph 76% 0.00 in CLR
07:06 54.5 °F 47.1 °F 29.98 in SW 6.9 mph 6.9 mph 76% 0.00 in CLR
07:11 54.5 °F 47.1 °F 29.98 in SW 6.9 mph 6.9 mph 76% 0.00 in CLR
07:16 54.5 °F 47.1 °F 29.99 in SW 10.0 mph 10.0 mph 76% 0.00 in CLR
07:21 54.5 °F 47.1 °F 29.99 in SE 10.4 mph 10.4 mph 76% 0.00 in CLR
07:26 54.6 °F 46.8 °F 29.99 in SW 6.0 mph 6.0 mph 75% 0.00 in CLR
07:31 54.7 °F 46.9 °F 29.99 in SE 11.5 mph 11.5 mph 75% 0.00 in CLR
07:36 54.8 °F 47.0 °F 29.99 in South 11.5 mph 11.5 mph 75% 0.00 in CLR
07:41 54.9 °F 47.1 °F 29.99 in NE 11.5 mph 11.5 mph 75% 0.00 in CLR
07:46 55.0 °F 47.2 °F 29.99 in SE 11.5 mph 11.5 mph 75% 0.00 in CLR
07:51 55.2 °F 47.4 °F 29.99 in SW 11.5 mph 11.5 mph 75% 0.00 in CLR
07:56 55.4 °F 47.6 °F 29.98 in SE 16.1 mph 16.1 mph 75% 0.00 in CLR
08:01 55.7 °F 47.5 °F 29.98 in SSW 8.1 mph 8.1 mph 74% 0.00 in CLR
08:06 56.0 °F 47.8 °F 29.98 in ESE 17.3 mph 17.3 mph 74% 0.00 in CLR
08:11 56.3 °F 47.8 °F 29.98 in WSW 10.4 mph 10.4 mph 73% 0.00 in CLR
08:16 56.6 °F 48.0 °F 29.98 in WNW 13.0 mph 13.0 mph 73% 0.00 in CLR
08:21 57.0 °F 48.1 °F 29.98 in SSW 17.3 mph 17.3 mph 72% 0.00 in CLR
08:26 57.2 °F 48.3 °F 29.98 in ESE 17.3 mph 17.3 mph 72% 0.00 in CLR
08:31 57.5 °F 48.2 °F 29.98 in SW 20.7 mph 20.7 mph 71% 0.00 in CLR
08:36 57.7 °F 48.4 °F 29.98 in SW 14.0 mph 14.0 mph 71% 0.00 in CLR
08:41 57.9 °F 48.6 °F 29.98 in SW 21.9 mph 21.9 mph 71% 0.00 in CLR
08:46 58.1 °F 48.7 °F 29.98 in SE 15.0 mph 15.0 mph 71% 0.00 in CLR
08:51 58.4 °F 48.7 °F 29.98 in SE 11.5 mph 11.5 mph 70% 0.00 in CLR
08:56 58.8 °F 49.0 °F 29.98 in SW 12.7 mph 12.7 mph 70% 0.00 in CLR
09:01 59.1 °F 48.9 °F 29.98 in South 13.8 mph 13.8 mph 69% 0.00 in CLR
09:06 59.5 °F 48.9 °F 29.98 in West 11.5 mph 11.5 mph 68% 0.00 in CLR
09:11 59.8 °F 49.2 °F 29.98 in ENE 18.4 mph 18.4 mph 68% 0.00 in CLR
09:16 60.0 °F 49.0 °F 29.98 in West 11.5 mph 11.5 mph 67% 0.00 in CLR
09:21 60.6 °F 49.2 °F 29.98 in SW 16.1 mph 16.1 mph 66% 0.00 in CLR
09:26 61.2 °F 49.7 °F 29.98 in SSW 16.1 mph 16.1 mph 66% 0.00 in CLR
09:31 61.5 °F 49.6 °F 29.98 in SW 18.4 mph 18.4 mph 65% 0.00 in CLR
09:36 61.6 °F 49.3 °F 29.98 in SSW 19.6 mph 19.6 mph 64% 0.00 in CLR
09:41 62.0 °F 49.7 °F 29.98 in West 15.0 mph 15.0 mph 64% 0.00 in CLR
09:46 62.5 °F 49.7 °F 29.98 in SW 14.0 mph 14.0 mph 63% 0.00 in CLR
09:51 62.9 °F 50.1 °F 29.98 in SSE 25.3 mph 25.3 mph 63% 0.00 in CLR
09:56 63.6 °F 49.9 °F 29.97 in WSW 10.4 mph 10.4 mph 61% 0.00 in CLR
10:01 63.7 °F 49.5 °F 29.97 in SW 18.4 mph 18.4 mph 60% 0.00 in CLR
10:06 63.6 °F 49.9 °F 29.97 in SSW 19.6 mph 19.6 mph 61% 0.00 in CLR
10:11 63.9 °F 49.7 °F 29.97 in SW 26.5 mph 26.5 mph 60% 0.00 in CLR
10:17 64.4 °F 50.2 °F 29.96 in SW 26.5 mph 26.5 mph 60% 0.00 in CLR
10:22 65.2 °F 50.0 °F 29.96 in WSW 20.7 mph 20.7 mph 58% 0.00 in CLR
10:27 66.0 °F 50.3 °F 29.96 in SW 24.0 mph 24.0 mph 57% 0.00 in CLR
10:32 66.1 °F 49.9 °F 29.96 in SW 21.9 mph 21.9 mph 56% 0.00 in CLR
10:37 66.6 °F 50.4 °F 29.96 in SW 21.0 mph 21.0 mph 56% 0.00 in CLR
10:42 67.5 °F 50.8 °F 29.96 in SW 24.2 mph 24.2 mph 55% 0.00 in CLR
10:47 67.7 °F 50.5 °F 29.96 in SW 16.1 mph 16.1 mph 54% 0.00 in CLR
10:52 68.0 °F 50.2 °F 29.96 in SW 28.8 mph 28.8 mph 53% 0.00 in CLR
10:57 68.2 °F 50.4 °F 29.96 in SSW 19.6 mph 19.6 mph 53% 0.00 in CLR
11:02 68.4 °F 50.1 °F 29.95 in East 17.3 mph 17.3 mph 52% 0.00 in CLR
11:07 68.8 °F 50.5 °F 29.95 in SW 20.0 mph 20.0 mph 52% 0.00 in CLR
11:12 69.4 °F 50.5 °F 29.95 in South 23.0 mph 23.0 mph 51% 0.00 in CLR
11:17 69.6 °F 50.7 °F 29.95 in SSW 24.2 mph 24.2 mph 51% 0.00 in CLR
11:22 70.2 °F 50.1 °F 29.95 in SSW 31.1 mph 31.1 mph 49% 0.00 in CLR
11:27 71.1 °F 50.4 °F 29.95 in WSW 25.3 mph 25.3 mph 48% 0.00 in CLR
11:32 71.4 °F 50.7 °F 29.95 in South 19.6 mph 19.6 mph 48% 0.00 in CLR
11:37 71.4 °F 50.7 °F 29.95 in South 24.2 mph 24.2 mph 48% 0.00 in CLR
11:42 71.5 °F 50.2 °F 29.95 in WSW 25.3 mph 25.3 mph 47% 0.00 in CLR
11:47 71.6 °F 50.3 °F 29.95 in WSW 22.0 mph 22.0 mph 47% 0.00 in CLR
11:52 71.9 °F 50.6 °F 29.95 in SW 25.3 mph 25.3 mph 47% 0.00 in CLR
11:57 72.0 °F 50.1 °F 29.95 in SW 21.9 mph 21.9 mph 46% 0.00 in CLR
12:02 72.0 °F 50.7 °F 29.95 in South 18.4 mph 18.4 mph 47% 0.00 in CLR
Hays Kansas WeatherReturn to Top
Ryan********************www.hayskansasweather.com********************
Compliments of Weather Underground